Time;durP1;ratioP1;P1;durP2;ratioP2;P2;SDS_P1;SDS_P2;PMS_P1;PMS_P2;Temp;Humidity;BMP_temperature;BMP_pressure;BME280_temperature;BME280_humidity;BME280_pressure;Samples;Min_cycle;Max_cycle;Signal;HPM_P1;HPM_P2
2022/01/31 00:00:56;;;;;;;22.47;5.77;;;;;;;-145.18;100.00;46722.91;5028729;28;20042;-74
2022/01/31 00:03:22;;;;;;;23.73;5.43;;;;;;;-145.18;100.00;46730.72;5028608;28;20053;-74
2022/01/31 00:05:48;;;;;;;28.03;6.67;;;;;;;-145.18;100.00;46720.94;5028891;28;20041;-74
2022/01/31 00:08:20;;;;;;;33.40;6.73;;;;;;;-145.18;100.00;46703.38;5028001;28;20041;-75
2022/01/31 00:10:46;;;;;;;21.00;5.10;;;;;;;-145.18;100.00;46711.19;5028762;28;20095;-74
2022/01/31 00:13:17;;;;;;;25.27;6.10;;;;;;;-145.18;100.00;46728.75;5027781;28;20290;-74
2022/01/31 00:15:46;;;;;;;29.27;6.27;;;;;;;-145.18;100.00;46707.28;5028699;28;20068;-73
2022/01/31 00:18:12;;;;;;;25.77;5.83;;;;;;;-145.18;100.00;46693.59;5028372;28;20281;-73
2022/01/31 00:20:37;;;;;;;34.67;7.00;;;;;;;-145.18;100.00;46668.22;5028680;28;20279;-73
2022/01/31 00:23:03;;;;;;;22.87;6.30;;;;;;;-145.18;100.00;46662.34;5028908;28;20064;-73
2022/01/31 00:25:29;;;;;;;28.73;7.37;;;;;;;-145.18;100.00;46658.44;5028417;28;20045;-73
2022/01/31 00:27:54;;;;;;;28.40;7.27;;;;;;;-145.18;100.00;46652.59;5028201;28;20401;-73
2022/01/31 00:30:20;;;;;;;37.67;9.37;;;;;;;-145.18;100.00;46623.28;5028399;28;20037;-73
2022/01/31 00:32:47;;;;;;;28.33;8.23;;;;;;;-145.18;100.00;46638.91;5027930;28;20550;-73
2022/01/31 00:35:13;;;;;;;34.77;8.40;;;;;;;-145.18;100.00;46629.13;5028557;28;20037;-73
2022/01/31 00:37:38;;;;;;;32.93;8.73;;;;;;;-145.18;100.00;46660.41;5028798;28;20305;-73
2022/01/31 00:40:05;;;;;;;34.17;7.43;;;;;;;-145.18;100.00;46660.41;5028146;28;20041;-73
2022/01/31 00:42:31;;;;;;;36.00;10.70;;;;;;;-145.18;100.00;46635.00;5027948;28;20049;-73
2022/01/31 00:45:09;;;;;;;40.33;10.03;;;;;;;-145.18;100.00;46660.41;5028273;28;20271;-73
2022/01/31 00:47:37;;;;;;;31.60;8.93;;;;;;;-145.18;100.00;46660.41;5027811;28;20289;-73
2022/01/31 00:50:11;;;;;;;37.67;10.17;;;;;;;-145.18;100.00;46654.53;5028172;28;20263;-73
2022/01/31 00:52:39;;;;;;;20.17;6.87;;;;;;;-145.18;100.00;46652.59;5026829;28;20274;-73
2022/01/31 00:55:07;;;;;;;33.27;9.30;;;;;;;-145.18;100.00;46642.81;5027639;28;20259;-73
2022/01/31 00:57:32;;;;;;;35.63;8.47;;;;;;;-145.18;100.00;46642.81;5027375;28;20271;-73
2022/01/31 00:59:57;;;;;;;37.47;9.47;;;;;;;-145.18;100.00;46642.81;5027835;28;20275;-73
2022/01/31 01:02:24;;;;;;;38.63;9.77;;;;;;;-145.18;100.00;46636.94;5027277;28;20041;-73
2022/01/31 01:04:51;;;;;;;19.37;5.70;;;;;;;-145.18;100.00;46640.88;5027935;28;20483;-72
2022/01/31 01:07:16;;;;;;;29.73;7.17;;;;;;;-145.18;100.00;46654.53;5028047;28;20267;-73
2022/01/31 01:09:44;;;;;;;29.70;8.70;;;;;;;-145.18;100.00;46654.53;5027407;28;20267;-71
2022/01/31 01:12:10;;;;;;;26.40;7.03;;;;;;;-145.18;100.00;46660.41;5027304;28;20481;-72
2022/01/31 01:14:36;;;;;;;26.03;8.00;;;;;;;-145.18;100.00;46660.41;5027076;28;20775;-71
2022/01/31 01:17:01;;;;;;;21.97;6.57;;;;;;;-145.18;100.00;46660.41;5027552;28;20279;-72
2022/01/31 01:19:27;;;;;;;31.93;8.00;;;;;;;-145.18;100.00;46681.88;5027319;28;20059;-72
2022/01/31 01:21:52;;;;;;;28.37;8.07;;;;;;;-145.18;100.00;46660.41;5027141;28;20125;-71
2022/01/31 01:24:18;;;;;;;33.53;8.07;;;;;;;-145.18;100.00;46679.94;5028049;28;20046;-71
2022/01/31 01:26:44;;;;;;;21.80;5.57;;;;;;;-145.18;100.00;46693.59;5025926;28;20068;-71
2022/01/31 01:29:10;;;;;;;32.90;9.43;;;;;;;-145.18;100.00;46699.47;5026393;28;20044;-71
2022/01/31 01:31:36;;;;;;;20.57;5.90;;;;;;;-145.18;100.00;46701.41;5026967;28;20041;-71
2022/01/31 01:34:01;;;;;;;21.73;6.80;;;;;;;-145.18;100.00;46703.38;5027299;28;20357;-72
2022/01/31 01:36:26;;;;;;;25.50;6.43;;;;;;;-145.18;100.00;46722.91;5025452;28;20073;-71
2022/01/31 01:38:52;;;;;;;26.70;7.53;;;;;;;-145.18;100.00;46722.91;5027997;28;20065;-72
2022/01/31 01:41:18;;;;;;;29.57;7.07;;;;;;;-145.18;100.00;46722.91;5026663;28;20041;-72
2022/01/31 01:43:43;;;;;;;20.23;7.60;;;;;;;-145.18;100.00;46724.84;5027338;28;20037;-71
2022/01/31 01:46:09;;;;;;;22.17;7.83;;;;;;;-145.18;100.00;46724.84;5027578;28;20038;-71
2022/01/31 01:48:35;;;;;;;23.47;6.80;;;;;;;-145.18;100.00;46724.84;5026873;28;20137;-71
2022/01/31 01:51:01;;;;;;;26.33;7.47;;;;;;;-145.18;100.00;46724.84;5027176;28;20861;-71
2022/01/31 01:53:27;;;;;;;24.73;7.60;;;;;;;-145.18;100.00;46726.81;5027149;28;20041;-72
2022/01/31 01:55:54;;;;;;;16.47;6.47;;;;;;;-145.18;100.00;46724.84;5027357;28;20680;-71
2022/01/31 01:58:24;;;;;;;17.97;6.90;;;;;;;-145.18;100.00;46719.00;5026930;28;20053;-71
2022/01/31 02:01:02;;;;;;;18.43;6.03;;;;;;;-145.18;100.00;46720.94;5027245;28;20277;-72
2022/01/31 02:03:29;;;;;;;16.60;5.63;;;;;;;-145.18;100.00;46720.94;5026740;28;20329;-71
2022/01/31 02:05:55;;;;;;;15.57;4.73;;;;;;;-145.18;100.00;46724.84;5026958;28;20266;-69
2022/01/31 02:08:21;;;;;;;18.70;6.50;;;;;;;-145.18;100.00;46722.91;5026384;28;20267;-70
2022/01/31 02:10:47;;;;;;;22.83;6.80;;;;;;;-145.18;100.00;46719.00;5027073;28;20274;-71
2022/01/31 02:13:16;;;;;;;15.43;6.73;;;;;;;-145.18;100.00;46719.00;5026531;28;20052;-70
2022/01/31 02:15:46;;;;;;;10.80;4.90;;;;;;;-145.18;100.00;46720.94;5026614;28;20052;-68
2022/01/31 02:18:12;;;;;;;9.97;4.43;;;;;;;-145.18;100.00;46719.00;5026580;28;20694;-68
2022/01/31 02:20:39;;;;;;;197.83;31.53;;;;;;;-145.18;100.00;46715.09;5027662;28;20279;-67
2022/01/31 02:23:08;;;;;;;13.83;5.17;;;;;;;-145.18;100.00;46713.13;5030771;28;20278;-69
2022/01/31 02:25:51;;;;;;;19.27;5.90;;;;;;;-145.18;100.00;46717.03;5030214;28;20282;-69
2022/01/31 02:28:17;;;;;;;13.27;5.17;;;;;;;-145.18;100.00;46715.09;5030049;28;20353;-69
2022/01/31 02:30:42;;;;;;;15.13;6.17;;;;;;;-145.18;100.00;46717.03;5029065;28;20374;-71
2022/01/31 02:33:09;;;;;;;20.03;5.67;;;;;;;-145.18;100.00;46713.13;5029854;28;20037;-69
2022/01/31 02:35:35;;;;;;;17.63;5.53;;;;;;;-145.18;100.00;46717.03;5029976;28;20537;-71
2022/01/31 02:38:00;;;;;;;23.77;5.07;;;;;;;-145.18;100.00;46709.22;5029550;28;20306;-71
2022/01/31 02:40:26;;;;;;;20.10;6.40;;;;;;;-145.18;100.00;46713.13;5029794;28;20069;-70
2022/01/31 02:42:52;;;;;;;26.83;5.27;;;;;;;-145.18;100.00;46707.28;5030185;28;20116;-71
2022/01/31 02:45:17;;;;;;;17.13;4.40;;;;;;;-145.18;100.00;46697.50;5030182;28;20034;-71
2022/01/31 02:47:50;;;;;;;23.87;5.13;;;;;;;-145.18;100.00;46697.50;5011727;28;20295;-71
2022/01/31 02:50:16;;;;;;;20.63;5.90;;;;;;;-145.18;100.00;46707.28;5030206;28;20128;-69
2022/01/31 02:52:47;;;;;;;15.40;3.10;;;;;;;-145.18;100.00;46703.38;5029373;28;21118;-69
2022/01/31 02:55:12;;;;;;;18.37;4.20;;;;;;;-145.18;100.00;46693.59;5030072;28;20041;-69
2022/01/31 02:57:38;;;;;;;9.33;2.70;;;;;;;-145.18;100.00;46711.19;5029075;28;20846;-69
2022/01/31 03:00:05;;;;;;;23.50;4.30;;;;;;;-145.18;100.00;46711.19;5029941;28;20460;-70
2022/01/31 03:02:30;;;;;;;30.10;4.17;;;;;;;-145.18;100.00;46715.09;5250007;22;20130;-71
2022/01/31 03:04:56;;;;;;;17.63;3.37;;;;;;;-145.18;100.00;46720.94;4934167;28;20366;-71
2022/01/31 03:07:21;;;;;;;18.83;3.10;;;;;;;-145.18;100.00;46717.03;4929437;29;20131;-72
2022/01/31 03:09:46;;;;;;;16.80;2.67;;;;;;;-145.18;100.00;46724.84;4911933;28;20047;-71
2022/01/31 03:12:13;;;;;;;14.50;3.03;;;;;;;-145.18;100.00;46724.84;4929989;29;20051;-72
2022/01/31 03:14:42;;;;;;;14.93;2.20;;;;;;;-145.18;100.00;46720.94;4929229;29;20399;-72
2022/01/31 03:17:08;;;;;;;13.50;3.30;;;;;;;-145.18;100.00;46697.50;4929063;28;20267;-72
2022/01/31 03:19:38;;;;;;;13.60;2.00;;;;;;;-145.18;100.00;46648.69;4929141;28;20266;-72
2022/01/31 03:22:03;;;;;;;15.20;2.00;;;;;;;-145.18;100.00;46660.41;4929170;29;20262;-72
2022/01/31 03:24:29;;;;;;;17.43;3.10;;;;;;;-145.18;100.00;46640.88;4929676;29;20269;-72
2022/01/31 03:26:54;;;;;;;19.50;3.17;;;;;;;-145.18;100.00;46633.06;4928939;29;20090;-71
2022/01/31 03:29:20;;;;;;;13.03;2.53;;;;;;;-145.18;100.00;46636.94;4929497;29;20047;-71
2022/01/31 03:31:45;;;;;;;15.77;3.33;;;;;;;-145.18;100.00;46633.06;4929569;29;20032;-72
2022/01/31 03:34:10;;;;;;;18.47;2.93;;;;;;;-145.18;100.00;46654.53;4929361;29;20063;-71
2022/01/31 03:36:36;;;;;;;22.43;2.53;;;;;;;-145.18;100.00;46658.44;4929639;29;20118;-72
2022/01/31 03:39:01;;;;;;;11.87;2.00;;;;;;;-145.18;100.00;46625.22;4929250;29;20131;-72
2022/01/31 03:41:27;;;;;;;7.47;1.50;;;;;;;-145.18;100.00;46629.13;4929455;29;20121;-71
2022/01/31 03:43:53;;;;;;;14.20;2.60;;;;;;;-145.18;100.00;46633.06;4928552;29;20032;-71
2022/01/31 03:46:18;;;;;;;31.73;2.37;;;;;;;-145.18;100.00;46638.91;4930025;29;20063;-72
2022/01/31 03:48:45;;;;;;;18.67;2.43;;;;;;;-145.18;100.00;46636.94;4928773;29;20044;-71
2022/01/31 03:51:11;;;;;;;10.73;1.93;;;;;;;-145.18;100.00;46646.72;4929377;29;20089;-71
2022/01/31 03:53:36;;;;;;;11.30;1.67;;;;;;;-145.18;100.00;46638.91;4929083;29;20262;-71
2022/01/31 03:56:02;;;;;;;16.73;2.53;;;;;;;-145.18;100.00;46660.41;4994464;28;20074;-71
2022/01/31 03:58:27;;;;;;;10.37;2.70;;;;;;;-145.18;100.00;46656.50;4928900;29;20510;-70
2022/01/31 04:00:53;;;;;;;8.60;1.83;;;;;;;-145.18;100.00;46668.22;4912426;28;20052;-72
2022/01/31 04:03:18;;;;;;;12.00;2.33;;;;;;;-145.18;100.00;46672.13;4928492;28;20054;-71
2022/01/31 04:05:44;;;;;;;17.03;3.27;;;;;;;-145.18;100.00;46691.66;4928921;29;20046;-71
2022/01/31 04:08:09;;;;;;;14.23;1.97;;;;;;;-145.18;100.00;46703.38;4928489;29;20036;-71
2022/01/31 04:10:36;;;;;;;14.77;2.80;;;;;;;-145.18;100.00;46699.47;4929242;29;20093;-71
2022/01/31 04:13:02;;;;;;;13.70;2.43;;;;;;;-145.18;100.00;46715.09;4928293;29;20036;-72
2022/01/31 04:15:28;;;;;;;22.20;3.33;;;;;;;-145.18;100.00;46713.13;4929541;29;20270;-72
2022/01/31 04:17:53;;;;;;;18.80;3.10;;;;;;;-145.18;100.00;46724.84;4928308;29;20324;-72
2022/01/31 04:20:20;;;;;;;11.10;2.03;;;;;;;-145.18;100.00;46750.25;4928716;29;20040;-71
2022/01/31 04:22:52;;;;;;;16.73;2.67;;;;;;;-145.18;100.00;46763.91;4927954;28;20044;-70
2022/01/31 04:25:29;;;;;;;13.97;3.27;;;;;;;-145.18;100.00;46777.59;4928531;29;20292;-72
2022/01/31 04:28:02;;;;;;;13.53;1.60;;;;;;;-145.18;100.00;46806.91;4910835;29;20286;-72
2022/01/31 04:30:35;;;;;;;9.50;1.93;;;;;;;-145.18;100.00;46797.13;4911615;29;20702;-71
2022/01/31 04:33:01;;;;;;;18.90;2.60;;;;;;;-145.18;100.00;46804.94;4927756;29;20285;-72
2022/01/31 04:35:26;;;;;;;13.00;2.17;;;;;;;-145.18;100.00;46781.50;4928568;29;20282;-71
2022/01/31 04:37:52;;;;;;;6.87;1.20;;;;;;;-145.18;100.00;46806.91;4927568;29;20055;-72
2022/01/31 04:40:17;;;;;;;16.83;2.77;;;;;;;-145.18;100.00;46793.22;4928546;28;20077;-71
2022/01/31 04:42:44;;;;;;;13.23;2.03;;;;;;;-145.18;100.00;46791.28;4927775;29;20518;-71
2022/01/31 04:45:10;;;;;;;14.97;2.40;;;;;;;-145.18;100.00;46787.38;4928049;29;20054;-70
2022/01/31 04:47:36;;;;;;;20.80;3.07;;;;;;;-145.18;100.00;46793.22;4928716;28;20266;-71
2022/01/31 04:50:02;;;;;;;14.10;2.50;;;;;;;-145.18;100.00;46795.19;4927882;28;20282;-72
2022/01/31 04:52:28;;;;;;;16.30;2.90;;;;;;;-145.18;100.00;46828.38;4927987;29;20444;-71
2022/01/31 04:54:53;;;;;;;14.63;3.17;;;;;;;-145.18;100.00;46887.00;4928110;29;20290;-72
2022/01/31 04:57:18;;;;;;;16.80;3.83;;;;;;;-145.18;100.00;46918.25;4928113;29;20071;-71
2022/01/31 04:59:44;;;;;;;16.33;2.50;;;;;;;-145.18;100.00;46931.91;4928086;29;20067;-72
2022/01/31 05:02:10;;;;;;;14.17;2.10;;;;;;;-145.18;100.00;46924.09;4928336;29;20044;-72
2022/01/31 05:04:36;;;;;;;7.13;1.67;;;;;;;-145.18;100.00;46892.84;4928386;28;20119;-71
2022/01/31 05:07:01;;;;;;;13.43;2.33;;;;;;;-145.18;100.00;46916.28;4927834;29;20274;-72
2022/01/31 05:09:27;;;;;;;13.43;2.20;;;;;;;-145.18;100.00;46922.16;4943868;28;20053;-71
2022/01/31 05:11:52;;;;;;;8.67;2.07;;;;;;;-145.18;100.00;46941.69;4945802;28;20058;-72
2022/01/31 05:14:18;;;;;;;7.73;1.50;;;;;;;-145.18;100.00;46890.91;4946069;28;20381;-70
2022/01/31 05:16:43;;;;;;;13.43;2.20;;;;;;;-145.18;100.00;46844.00;4929269;28;20147;-72
2022/01/31 05:19:09;;;;;;;100.63;14.03;;;;;;;-145.18;100.00;46808.84;4945996;28;20045;-72
2022/01/31 05:21:34;;;;;;;47.03;4.97;;;;;;;-145.18;100.00;46746.34;4945647;28;20043;-71
2022/01/31 05:24:00;;;;;;;16.70;3.30;;;;;;;-145.18;100.00;46703.38;4928493;28;20039;-68
2022/01/31 05:26:25;;;;;;;12.60;2.00;;;;;;;-145.18;100.00;46693.59;4947175;28;20043;-69
2022/01/31 05:28:51;;;;;;;25.97;3.40;;;;;;;-145.18;100.00;46650.63;4946154;28;20058;-68
2022/01/31 05:31:16;;;;;;;22.23;3.70;;;;;;;-145.18;100.00;46636.94;4947298;28;20043;-70
2022/01/31 05:33:42;;;;;;;17.93;3.03;;;;;;;-145.18;100.00;46660.41;4942548;28;20053;-71
2022/01/31 05:36:09;;;;;;;8.83;2.17;;;;;;;-145.19;100.00;57938.22;4937916;28;20051;-70
2022/01/31 05:38:55;;;;;;;14.57;2.03;;;;;;;-145.19;100.00;57938.22;4936227;29;20052;-71
2022/01/31 05:41:41;;;;;;;19.85;2.60;;;;;;;-145.19;100.00;57938.22;4932907;28;20776;-71
2022/01/31 05:44:27;;;;;;;17.92;3.85;;;;;;;-145.19;100.00;57938.22;4944103;28;20122;-71
2022/01/31 05:47:14;;;;;;;21.10;3.58;;;;;;;-145.19;100.00;57938.22;4938661;28;20093;-71
2022/01/31 05:50:00;;;;;;;7.53;1.60;;;;;;;-145.19;100.00;57938.22;4945260;28;20070;-70
2022/01/31 05:52:46;;;;;;;;;;;;;;;-145.19;100.00;57938.22;4939840;28;20353;-70
2022/01/31 05:55:33;;;;;;;27.73;3.50;;;;;;;-145.19;100.00;57938.22;4944679;28;19923;-70
2022/01/31 05:58:19;;;;;;;15.10;3.13;;;;;;;-145.19;100.00;57938.22;4940714;29;20766;-70
2022/01/31 06:01:06;;;;;;;25.52;4.32;;;;;;;-145.19;100.00;57938.22;4940930;29;20266;-71
2022/01/31 06:03:52;;;;;;;22.37;3.33;;;;;;;-145.19;100.00;57938.22;4946824;29;20089;-71
2022/01/31 06:06:23;;;;;;;20.33;4.55;;;;;;;-145.18;100.00;46660.41;4948727;29;20456;-71
2022/01/31 06:08:48;;;;;;;21.00;4.33;;;;;;;-145.18;100.00;46660.41;4947298;29;20043;-70
2022/01/31 06:11:14;;;;;;;22.63;4.67;;;;;;;-145.18;100.00;46660.41;4947869;28;20293;-73
2022/01/31 06:13:42;;;;;;;18.10;3.03;;;;;;;-145.18;100.00;46629.13;4947873;29;20410;-73
2022/01/31 06:16:07;;;;;;;19.87;3.00;;;;;;;-145.18;100.00;46660.41;4948842;29;20043;-71
2022/01/31 06:18:35;;;;;;;21.73;2.80;;;;;;;-145.18;100.00;46660.41;4948599;29;20282;-72
2022/01/31 06:21:01;;;;;;;29.33;4.27;;;;;;;-145.18;100.00;46625.22;4948957;29;20040;-70
2022/01/31 06:23:26;;;;;;;24.00;3.97;;;;;;;-145.18;100.00;46631.09;4949663;29;20782;-69
2022/01/31 06:25:52;;;;;;;34.53;4.47;;;;;;;-145.18;100.00;46623.28;4948822;29;20042;-68
2022/01/31 06:28:17;;;;;;;24.20;3.57;;;;;;;-145.18;100.00;46629.13;4948478;29;20034;-68
2022/01/31 06:30:43;;;;;;;28.97;4.33;;;;;;;-145.18;100.00;46633.06;4948784;28;20446;-70
2022/01/31 06:33:08;;;;;;;20.53;3.30;;;;;;;-145.18;100.00;46638.91;4948490;29;20499;-69
2022/01/31 06:35:33;;;;;;;18.40;3.57;;;;;;;-145.18;100.00;46627.19;4948997;29;20423;-68
2022/01/31 06:37:59;;;;;;;23.90;3.77;;;;;;;-145.18;100.00;46629.13;4948748;28;20050;-68
2022/01/31 06:40:24;;;;;;;23.53;3.77;;;;;;;-145.18;100.00;46631.09;4951700;28;20047;-68
2022/01/31 06:42:50;;;;;;;26.93;3.57;;;;;;;-145.18;100.00;46621.31;4967487;28;20042;-72
2022/01/31 06:45:15;;;;;;;27.33;5.70;;;;;;;-145.18;100.00;46631.09;4966519;28;20117;-68
2022/01/31 06:47:41;;;;;;;24.53;5.20;;;;;;;-145.18;100.00;46635.00;4967892;28;20053;-68
2022/01/31 06:50:07;;;;;;;22.47;4.33;;;;;;;-145.18;100.00;46635.00;4967582;28;20407;-69
2022/01/31 06:52:35;;;;;;;22.93;4.40;;;;;;;-145.18;100.00;46631.09;4967301;28;20050;-68
2022/01/31 06:55:05;;;;;;;21.93;3.00;;;;;;;-145.18;100.00;46650.63;4967324;28;20039;-70
2022/01/31 06:57:34;;;;;;;20.43;3.03;;;;;;;-145.18;100.00;46654.53;4967340;28;20299;-69
2022/01/31 07:00:01;;;;;;;30.30;4.60;;;;;;;-145.18;100.00;46666.25;4967106;28;20339;-68
2022/01/31 07:02:28;;;;;;;20.10;3.57;;;;;;;-145.18;100.00;46664.31;4937642;28;20635;-70
2022/01/31 07:04:53;;;;;;;21.60;3.47;;;;;;;-145.18;100.00;46660.41;4929135;29;20286;-71
2022/01/31 07:07:18;;;;;;;19.17;4.10;;;;;;;-145.18;100.00;46677.97;4928722;29;20279;-69
2022/01/31 07:09:44;;;;;;;20.80;4.70;;;;;;;-145.18;100.00;46674.06;4929385;29;20454;-66
2022/01/31 07:12:12;;;;;;;20.27;4.00;;;;;;;-145.18;100.00;46660.41;4931414;29;20054;-67
2022/01/31 07:14:37;;;;;;;38.03;4.83;;;;;;;-145.18;100.00;46648.69;4913821;28;21372;-67
2022/01/31 07:17:05;;;;;;;27.67;3.63;;;;;;;-145.18;100.00;46629.13;5013634;28;20266;-66
2022/01/31 07:19:33;;;;;;;23.03;5.07;;;;;;;-145.18;100.00;46631.09;4948639;28;20125;-68
2022/01/31 07:21:59;;;;;;;20.47;2.73;;;;;;;-145.18;100.00;46627.19;4948670;28;20311;-68
2022/01/31 07:27:04;;;;;;;24.00;3.90;;;;;;;-145.18;100.00;46660.41;4947527;28;20047;-66
2022/01/31 07:29:29;;;;;;;31.10;5.43;;;;;;;-145.18;100.00;46658.44;4941448;28;20715;-68
2022/01/31 07:31:56;;;;;;;25.03;4.37;;;;;;;-145.18;100.00;46656.50;4972478;28;20362;-68
2022/01/31 07:34:22;;;;;;;33.20;5.27;;;;;;;-145.18;100.00;46623.28;4945104;28;20057;-68
2022/01/31 07:36:47;;;;;;;29.13;4.77;;;;;;;-145.18;100.00;46627.19;4966411;28;20359;-68
2022/01/31 07:39:13;;;;;;;14.27;3.00;;;;;;;-145.18;100.00;46629.13;4997142;28;20080;-68
2022/01/31 07:41:39;;;;;;;30.87;6.43;;;;;;;-145.18;100.00;46625.22;5048754;28;20052;-68
2022/01/31 07:44:06;;;;;;;31.17;4.50;;;;;;;-145.18;100.00;46660.41;5047813;28;20420;-68
2022/01/31 07:46:31;;;;;;;31.97;5.03;;;;;;;-145.18;100.00;46629.13;5048618;28;20646;-68
2022/01/31 07:48:56;;;;;;;29.23;4.73;;;;;;;-145.18;100.00;46633.06;5047845;28;20258;-69
2022/01/31 07:51:22;;;;;;;18.83;4.07;;;;;;;-145.18;100.00;46627.19;5048961;28;20056;-69
2022/01/31 07:53:48;;;;;;;32.13;4.00;;;;;;;-145.18;100.00;46633.06;5047489;28;20053;-67
2022/01/31 07:56:16;;;;;;;26.43;3.93;;;;;;;-145.18;100.00;46631.09;5047790;28;20685;-68
2022/01/31 07:58:41;;;;;;;18.73;4.93;;;;;;;-145.18;100.00;46660.41;5047801;28;20490;-69
2022/01/31 08:01:07;;;;;;;34.87;5.50;;;;;;;-145.18;100.00;46656.50;5030195;28;20265;-69
2022/01/31 08:03:33;;;;;;;26.47;4.23;;;;;;;-145.18;100.00;46656.50;5047367;28;20104;-68
2022/01/31 08:05:59;;;;;;;26.63;4.27;;;;;;;-145.18;100.00;46656.50;5048095;28;20269;-69
2022/01/31 08:08:24;;;;;;;22.57;3.77;;;;;;;-145.18;100.00;46654.53;5047884;28;20409;-67
2022/01/31 08:10:51;;;;;;;24.67;4.63;;;;;;;-145.18;100.00;46656.50;5047994;28;20049;-67
2022/01/31 08:13:16;;;;;;;30.90;5.07;;;;;;;-145.18;100.00;46660.41;5014283;28;20130;-67
2022/01/31 08:16:00;;;;;;;40.23;6.07;;;;;;;-145.18;100.00;46635.00;4946762;28;20269;-66
2022/01/31 08:18:25;;;;;;;29.53;4.23;;;;;;;-145.18;100.00;46631.09;4950307;28;20080;-70
2022/01/31 08:20:51;;;;;;;18.40;2.67;;;;;;;-145.18;100.00;46636.94;4966285;28;20280;-69
2022/01/31 08:23:16;;;;;;;23.43;3.63;;;;;;;-145.18;100.00;46656.50;5015502;28;20046;-68
2022/01/31 08:25:47;;;;;;;29.47;4.87;;;;;;;-145.18;100.00;46621.31;4966225;28;20051;-68
2022/01/31 08:28:13;;;;;;;37.27;6.40;;;;;;;-145.18;100.00;46644.78;4962053;28;20130;-70
2022/01/31 08:30:55;;;;;;;33.63;5.80;;;;;;;-145.18;100.00;46648.69;4944763;29;20356;-71
2022/01/31 08:33:39;;;;;;;36.33;6.50;;;;;;;-145.18;100.00;46664.31;4946218;28;20057;-68
2022/01/31 08:36:07;;;;;;;31.23;4.80;;;;;;;-145.18;100.00;46658.44;4946747;29;20780;-68
2022/01/31 08:38:34;;;;;;;34.87;5.77;;;;;;;-145.18;100.00;46670.16;4946061;29;20273;-69
2022/01/31 08:41:00;;;;;;;48.03;5.13;;;;;;;-145.18;100.00;46648.69;4946456;29;20277;-70
2022/01/31 08:43:26;;;;;;;34.50;6.43;;;;;;;-145.18;100.00;46638.91;4946451;29;20281;-69
2022/01/31 08:45:55;;;;;;;48.30;5.83;;;;;;;-145.18;100.00;46635.00;4929347;28;20043;-69
2022/01/31 08:48:21;;;;;;;21.57;3.23;;;;;;;-145.18;100.00;46629.13;4946540;29;20027;-68
2022/01/31 08:50:46;;;;;;;33.40;5.37;;;;;;;-145.18;100.00;46660.41;4946600;29;20623;-69
2022/01/31 08:53:12;;;;;;;38.53;6.03;;;;;;;-145.18;100.00;46660.41;4929941;28;20189;-68
2022/01/31 08:55:37;;;;;;;22.43;5.37;;;;;;;-145.18;100.00;46656.50;4946576;28;20062;-68
2022/01/31 08:58:05;;;;;;;26.50;3.93;;;;;;;-145.18;100.00;46660.41;4946063;29;20043;-68
2022/01/31 09:00:36;;;;;;;32.83;5.93;;;;;;;-145.18;100.00;46623.28;4946503;28;20043;-68
2022/01/31 09:03:22;;;;;;;31.33;5.03;;;;;;;-145.18;100.00;46619.38;4945916;29;20654;-68
2022/01/31 09:05:47;;;;;;;35.65;5.65;;;;;;;-145.18;100.00;46623.28;4946376;29;20281;-68
2022/01/31 09:08:12;;;;;;;33.90;5.00;;;;;;;-145.18;100.00;46629.13;4945800;29;20483;-69
2022/01/31 09:10:39;;;;;;;28.80;6.20;;;;;;;-145.18;100.00;46633.06;4929563;29;20067;-68
2022/01/31 09:13:05;;;;;;;42.30;8.63;;;;;;;-145.18;100.00;46625.22;4945710;28;20522;-68
2022/01/31 09:15:30;;;;;;;24.00;5.07;;;;;;;-145.18;100.00;46636.94;4929251;28;20305;-69
2022/01/31 09:17:56;;;;;;;34.83;5.63;;;;;;;-145.18;100.00;46640.88;4945313;29;20127;-69
2022/01/31 09:20:21;;;;;;;40.50;6.70;;;;;;;-145.18;100.00;46648.69;4946647;29;20124;-68
2022/01/31 09:22:47;;;;;;;28.87;5.87;;;;;;;-145.18;100.00;46648.69;4944813;28;20052;-69
2022/01/31 09:25:16;;;;;;;38.50;8.27;;;;;;;-145.18;100.00;46642.81;4946052;28;20484;-69
2022/01/31 09:27:42;;;;;;;41.70;7.60;;;;;;;-145.18;100.00;46638.91;4945622;28;20032;-67
2022/01/31 09:30:09;;;;;;;43.83;6.77;;;;;;;-145.18;100.00;46625.22;4947013;28;20288;-67
2022/01/31 09:32:35;;;;;;;44.97;8.27;;;;;;;-145.18;100.00;46660.41;4948509;28;20043;-66
2022/01/31 09:35:02;;;;;;;46.13;6.93;;;;;;;-145.18;100.00;46660.41;4948342;28;20274;-66
2022/01/31 09:37:27;;;;;;;26.23;5.07;;;;;;;-145.18;100.00;46642.81;4950012;28;20304;-65
2022/01/31 09:39:53;;;;;;;45.67;7.93;;;;;;;-145.18;100.00;46642.81;4948997;28;20273;-65
2022/01/31 09:42:31;;;;;;;45.17;7.00;;;;;;;-145.18;100.00;46717.03;4949245;28;20081;-66
2022/01/31 09:45:10;;;;;;;32.43;6.40;;;;;;;-145.18;100.00;46715.09;4948793;28;20281;-65
2022/01/31 09:50:19;;;;;;;53.80;8.67;;;;;;;-145.18;100.00;110870.88;4949642;28;20385;-65
2022/01/31 09:52:45;;;;;;;56.60;10.33;;;;;;;-145.18;100.00;46631.09;4948670;28;20360;-65
2022/01/31 09:55:12;;;;;;;51.60;8.77;;;;;;;-145.18;100.00;46631.09;4948710;28;20158;-65
2022/01/31 09:57:37;;;;;;;55.30;9.50;;;;;;;-145.19;100.00;57938.22;4949006;28;20426;-67
2022/01/31 10:00:04;;;;;;;39.97;7.10;;;;;;;-145.19;100.00;57938.22;4948542;28;20286;-68
2022/01/31 10:02:30;;;;;;;46.23;8.37;;;;;;;-145.18;100.00;46636.94;4948952;28;20039;-67
2022/01/31 10:04:55;;;;;;;35.87;6.80;;;;;;;-145.18;100.00;46662.34;4949119;28;20812;-67
2022/01/31 10:07:21;;;;;;;54.07;9.73;;;;;;;-145.18;100.00;46693.59;4949021;28;20499;-67
2022/01/31 10:09:48;;;;;;;45.23;8.17;;;;;;;-145.18;100.00;46765.88;4931313;28;20050;-67
2022/01/31 10:17:34;;;;;;;52.63;9.37;;;;;;;-145.18;100.00;46797.13;4949168;28;20289;-66
2022/01/31 10:20:06;;;;;;;39.73;6.67;;;;;;;-145.18;100.00;47070.63;4948168;28;20269;-68
2022/01/31 10:22:34;;;;;;;45.13;7.57;;;;;;;-145.18;100.00;47070.63;4949082;28;20349;-66
2022/01/31 10:25:05;;;;;;;48.00;7.23;;;;;;;-145.19;100.00;57938.22;4948112;28;20990;-66
2022/01/31 10:27:34;;;;;;;51.83;8.20;;;;;;;-145.19;100.00;57938.22;4948771;28;20265;-66
2022/01/31 10:30:16;;;;;;;27.47;7.47;;;;;;;-145.19;100.00;57938.22;4948078;28;20312;-67
2022/01/31 10:32:47;;;;;;;45.03;9.47;;;;;;;-145.19;100.00;57938.22;4948786;28;20280;-64
2022/01/31 10:35:19;;;;;;;37.70;7.03;;;;;;;-145.19;100.00;57938.22;4948279;28;20282;-65
2022/01/31 10:37:45;;;;;;;36.63;6.10;;;;;;;-145.18;100.00;47070.63;4948657;28;20284;-65
2022/01/31 10:45:56;;;;;;;41.50;7.60;;;;;;;-145.19;100.00;57938.22;4948606;28;20315;-67
2022/01/31 10:53:54;;;;;;;48.93;10.50;;;;;;;-145.18;100.00;46935.81;4947931;28;20773;-66
2022/01/31 10:56:20;;;;;;;46.10;8.70;;;;;;;-145.18;100.00;46887.00;4948497;28;20771;-67
2022/01/31 10:59:01;;;;;;;50.23;10.70;;;;;;;-145.18;100.00;46851.81;4947824;28;20273;-67
2022/01/31 11:01:27;;;;;;;45.63;8.10;;;;;;;-145.18;100.00;46816.66;4948484;28;20496;-67
2022/01/31 11:03:53;;;;;;;45.20;9.10;;;;;;;-145.18;100.00;46824.47;4947513;28;22520;-67
2022/01/31 11:06:20;;;;;;;35.50;6.43;;;;;;;-145.18;100.00;46793.22;4948061;28;20313;-67
2022/01/31 11:08:47;;;;;;;51.77;10.23;;;;;;;-145.18;100.00;46787.38;4947516;28;20281;-67
2022/01/31 11:11:13;;;;;;;55.20;9.13;;;;;;;-145.18;100.00;46793.22;4942336;28;20269;-67
2022/01/31 11:13:38;;;;;;;40.93;6.67;;;;;;;-145.18;100.00;46777.59;4930964;28;20282;-68
2022/01/31 11:16:06;;;;;;;60.10;8.60;;;;;;;-145.18;100.00;46738.53;4967682;28;20046;-67
2022/01/31 11:18:34;;;;;;;42.23;8.90;;;;;;;-145.18;100.00;46715.09;4966744;28;20053;-67
2022/01/31 11:21:09;;;;;;;37.73;6.57;;;;;;;-145.18;100.00;46709.22;4967148;28;20265;-68
2022/01/31 11:23:38;;;;;;;48.10;10.13;;;;;;;-145.18;100.00;46705.31;4966821;28;20365;-67
2022/01/31 11:26:06;;;;;;;45.00;9.10;;;;;;;-145.18;100.00;46697.50;4966723;28;20280;-67